Liberty, West Virginia
Current Conditions -  °F | °C
As of 12:54 AM on Sunday 26 Oct 2014 (Local Time) from KCRW Reporting Station
Clear Clear  
Wind Chill: 59°   Ceiling: Unl
Heat Index: 59°   Visibility: 10mi
Dew Point: 53°   Wind: 5mph
Humidity: 81%   Direction: NA
Pressure: 29.88"   Gusts: NA
Location:  38.6°N, 81.71°W
Report Text: KCRW 260454Z VRB04KT 10SM CLR 15/12 A2988 RMK AO2 SLP114 T01500117 401940022 $
Loading
Personal Weather Stations






























Interactive Weather Map
Tropical Storm Tracking
New forecast layout! Learn more

10-Day Weather Forecast

Advertisements
Track Severe Weather on mobile